Burr Oak, Iowa
Current Conditions -  °F | °C
As of 10:15 AM on Monday 22 Dec 2014 (Local Time) from KDEH Reporting Station
Haze Haze  
Wind Chill: 28°   Ceiling: 4900
Heat Index: 36°   Visibility: 4mi
Dew Point: 34°   Wind: 10mph
Humidity: 93%   Direction: 140°SE
Pressure: 29.69"   Gusts: 20mph
Location:  43.46°N, 91.87°W
Report Text: KDEH 221615Z AUTO 14009G17KT 120V180 4SM BR OVC049 02/01 A2969 RMK AO2
Loading
Personal Weather Stations






























Interactive Weather Map New forecast layout! Learn more

10-Day Weather Forecast

Advertisements
Track Severe Weather on mobile